createdAt,value
2018-04-22T00:00:03.377Z,19.00
2018-04-22T00:02:31.511Z,18.90
2018-04-22T00:04:59.657Z,18.83
2018-04-22T00:07:27.810Z,18.87
2018-04-22T00:09:55.962Z,18.94
2018-04-22T00:12:24.136Z,18.79
2018-04-22T00:14:52.279Z,18.63
2018-04-22T00:17:20.434Z,18.70
2018-04-22T00:19:48.600Z,18.87
2018-04-22T00:22:16.731Z,18.77
2018-04-22T00:24:44.897Z,18.71
2018-04-22T00:27:13.242Z,18.58
2018-04-22T00:29:41.378Z,18.78
2018-04-22T00:32:09.515Z,18.83
2018-04-22T00:34:37.678Z,18.69
2018-04-22T00:37:05.821Z,18.50
2018-04-22T00:39:33.961Z,18.65
2018-04-22T00:42:02.133Z,18.70
2018-04-22T00:44:33.203Z,18.54
2018-04-22T00:47:01.348Z,18.27
2018-04-22T00:49:29.517Z,18.42
2018-04-22T00:51:57.649Z,18.55
2018-04-22T00:54:25.798Z,18.41
2018-04-22T00:56:53.960Z,18.23
2018-04-22T00:59:22.081Z,18.37
2018-04-22T01:01:50.391Z,18.43
2018-04-22T01:04:18.559Z,18.36
2018-04-22T01:06:46.696Z,18.45
2018-04-22T01:09:14.851Z,18.47
2018-04-22T01:11:43.017Z,18.46
2018-04-22T01:14:11.151Z,18.33
2018-04-22T01:16:39.296Z,18.28
2018-04-22T01:19:07.650Z,18.32
2018-04-22T01:21:35.786Z,18.37
2018-04-22T01:24:03.924Z,18.43
2018-04-22T01:26:32.096Z,18.43
2018-04-22T01:29:00.216Z,18.39
2018-04-22T01:31:28.417Z,18.28
2018-04-22T01:33:56.572Z,18.05
2018-04-22T01:36:24.737Z,18.04
2018-04-22T01:38:52.889Z,18.10
2018-04-22T01:41:21.035Z,18.05
2018-04-22T01:43:49.165Z,17.94
2018-04-22T01:46:17.297Z,17.87
2018-04-22T01:48:45.438Z,17.84
2018-04-22T01:51:13.589Z,17.71
2018-04-22T01:53:41.727Z,17.69
2018-04-22T01:56:09.874Z,17.73
2018-04-22T01:58:38.009Z,17.79
2018-04-22T02:01:06.166Z,17.81
2018-04-22T02:03:34.307Z,17.81
2018-04-22T02:06:02.434Z,17.81
2018-04-22T02:08:30.564Z,17.82
2018-04-22T02:10:58.721Z,17.82
2018-04-22T02:13:26.855Z,17.82
2018-04-22T02:15:54.986Z,17.87
2018-04-22T02:18:23.130Z,17.84
2018-04-22T02:20:51.283Z,17.86
2018-04-22T02:23:19.396Z,17.87
2018-04-22T02:25:47.589Z,17.86
2018-04-22T02:28:15.733Z,17.67
2018-04-22T02:30:43.843Z,17.78
2018-04-22T02:33:12.012Z,17.81
2018-04-22T02:35:40.147Z,17.74
2018-04-22T02:38:08.309Z,17.70
2018-04-22T02:40:36.479Z,17.70
2018-04-22T02:43:04.596Z,17.64
2018-04-22T02:45:32.753Z,17.69
2018-04-22T02:48:00.908Z,17.68
2018-04-22T02:50:29.094Z,17.70
2018-04-22T02:52:57.198Z,17.70
2018-04-22T02:55:25.354Z,17.65
2018-04-22T02:57:53.494Z,17.53
2018-04-22T03:00:21.633Z,17.58
2018-04-22T03:02:49.787Z,17.53
2018-04-22T03:05:17.909Z,17.47
2018-04-22T03:07:46.065Z,17.45
2018-04-22T03:10:14.377Z,17.40
2018-04-22T03:12:42.513Z,17.42
2018-04-22T03:15:10.652Z,17.29
2018-04-22T03:17:38.824Z,17.27
2018-04-22T03:20:06.972Z,17.22
2018-04-22T03:22:35.111Z,17.14
2018-04-22T03:25:03.267Z,17.06
2018-04-22T03:27:31.388Z,17.06
2018-04-22T03:29:59.524Z,17.07
2018-04-22T03:32:27.689Z,17.08
2018-04-22T03:34:55.828Z,16.96
2018-04-22T03:37:23.970Z,17.02
2018-04-22T03:39:52.122Z,17.08
2018-04-22T03:42:20.286Z,17.04
2018-04-22T03:44:48.426Z,17.04
2018-04-22T03:47:16.570Z,17.08
2018-04-22T03:49:44.707Z,16.98
2018-04-22T03:52:12.847Z,16.91
2018-04-22T03:54:40.990Z,16.84
2018-04-22T03:57:09.136Z,16.89
2018-04-22T03:59:37.264Z,16.91
2018-04-22T04:02:05.420Z,17.00
2018-04-22T04:04:33.549Z,17.00
2018-04-22T04:07:01.675Z,17.00
2018-04-22T04:09:29.825Z,17.02
2018-04-22T04:11:57.957Z,17.06
2018-04-22T04:14:26.094Z,16.97
2018-04-22T04:16:54.257Z,17.04
2018-04-22T04:19:34.203Z,17.14
2018-04-22T04:22:14.322Z,17.13
2018-04-22T04:27:46.191Z,17.06
2018-04-22T04:30:14.340Z,16.99
2018-04-22T04:32:42.462Z,17.07
2018-04-22T04:35:10.628Z,17.12
2018-04-22T04:37:38.791Z,17.19
2018-04-22T04:40:06.932Z,17.11
2018-04-22T04:42:35.077Z,17.02
2018-04-22T04:45:03.208Z,17.07
2018-04-22T04:47:31.357Z,17.13
2018-04-22T04:49:59.503Z,17.16
2018-04-22T04:52:27.652Z,17.15
2018-04-22T04:54:55.809Z,17.16
2018-04-22T04:57:23.947Z,17.11
2018-04-22T04:59:52.090Z,17.11
2018-04-22T05:02:20.242Z,17.00
2018-04-22T05:04:48.401Z,17.00
2018-04-22T05:07:16.553Z,17.03
2018-04-22T05:09:44.712Z,17.04
2018-04-22T05:12:12.860Z,17.05
2018-04-22T05:14:41.010Z,17.05
2018-04-22T05:17:09.165Z,17.00
2018-04-22T05:19:37.292Z,16.94
2018-04-22T05:22:05.445Z,16.97
2018-04-22T05:24:33.576Z,17.04
2018-04-22T05:27:01.733Z,17.11
2018-04-22T05:29:29.890Z,17.13
2018-04-22T05:31:58.026Z,17.17
2018-04-22T05:34:26.208Z,17.20
2018-04-22T05:36:54.347Z,17.21
2018-04-22T05:39:22.481Z,17.16
2018-04-22T05:41:50.684Z,17.22
2018-04-22T05:44:18.778Z,17.25
2018-04-22T05:46:46.950Z,17.26
2018-04-22T05:49:15.112Z,17.21
2018-04-22T05:51:43.249Z,17.22
2018-04-22T05:54:11.403Z,17.29
2018-04-22T05:56:39.554Z,17.33
2018-04-22T05:59:07.671Z,17.37
2018-04-22T06:01:35.812Z,17.45
2018-04-22T06:04:05.881Z,17.53
2018-04-22T06:06:34.032Z,17.63
2018-04-22T06:09:02.164Z,17.70
2018-04-22T06:11:30.317Z,17.76
2018-04-22T06:13:58.455Z,17.78
2018-04-22T06:16:26.621Z,17.82
2018-04-22T06:18:54.766Z,17.87
2018-04-22T06:21:22.914Z,17.91
2018-04-22T06:23:51.033Z,18.01
2018-04-22T06:26:19.199Z,18.06
2018-04-22T06:28:47.331Z,18.17
2018-04-22T06:31:15.480Z,18.16
2018-04-22T06:33:43.636Z,18.21
2018-04-22T06:36:11.826Z,18.30
2018-04-22T06:38:39.968Z,18.57
2018-04-22T06:41:08.111Z,18.58
2018-04-22T06:43:39.156Z,18.57
2018-04-22T06:46:07.360Z,18.69
2018-04-22T06:48:35.480Z,18.78
2018-04-22T06:51:03.614Z,18.79
2018-04-22T06:53:31.752Z,18.81
2018-04-22T06:56:00.032Z,18.97
2018-04-22T06:58:28.170Z,18.99
2018-04-22T07:00:56.298Z,18.99
2018-04-22T07:03:24.496Z,19.06
2018-04-22T07:05:52.608Z,19.13
2018-04-22T07:08:20.758Z,19.21
2018-04-22T07:10:49.090Z,19.29
2018-04-22T07:13:17.244Z,19.40
2018-04-22T07:15:45.423Z,19.52
2018-04-22T07:18:13.568Z,19.59
2018-04-22T07:20:41.827Z,19.64
2018-04-22T07:23:09.986Z,19.84
2018-04-22T07:25:38.131Z,19.86
2018-04-22T07:28:06.257Z,19.94
2018-04-22T07:30:34.411Z,19.96
2018-04-22T07:33:02.576Z,20.05
2018-04-22T07:35:30.706Z,20.15
2018-04-22T07:37:58.877Z,20.22
2018-04-22T07:40:27.083Z,20.29
2018-04-22T07:42:58.931Z,20.32
2018-04-22T07:45:28.993Z,20.39
2018-04-22T07:47:57.117Z,20.42
2018-04-22T07:50:25.273Z,20.52
2018-04-22T07:52:53.572Z,20.57
2018-04-22T07:55:21.698Z,20.65
2018-04-22T07:57:49.870Z,20.65
2018-04-22T08:00:17.997Z,20.65
2018-04-22T08:02:46.136Z,20.68
2018-04-22T08:05:14.274Z,20.73
2018-04-22T08:07:42.629Z,20.78
2018-04-22T08:10:10.801Z,20.82
2018-04-22T08:12:38.916Z,20.88
2018-04-22T08:15:07.096Z,20.96
2018-04-22T08:17:35.216Z,21.00
2018-04-22T08:20:03.377Z,21.09
2018-04-22T08:22:31.510Z,21.15
2018-04-22T08:24:59.651Z,21.26
2018-04-22T08:27:27.812Z,21.40
2018-04-22T08:29:55.971Z,21.43
2018-04-22T08:32:24.093Z,21.55
2018-04-22T08:34:52.232Z,21.56
2018-04-22T08:37:20.436Z,21.62
2018-04-22T08:39:48.566Z,21.69
2018-04-22T08:42:16.721Z,21.76
2018-04-22T08:44:44.875Z,21.78
2018-04-22T08:47:13.011Z,21.87
2018-04-22T08:49:41.155Z,21.87
2018-04-22T08:52:09.404Z,21.85
2018-04-22T08:54:37.541Z,22.01
2018-04-22T08:57:05.680Z,22.17
2018-04-22T08:59:33.835Z,22.19
2018-04-22T09:02:01.984Z,22.27
2018-04-22T09:04:30.111Z,22.31
2018-04-22T09:06:58.266Z,22.32
2018-04-22T09:09:26.419Z,22.38
2018-04-22T09:11:54.568Z,22.47
2018-04-22T09:14:22.708Z,22.55
2018-04-22T09:16:50.852Z,22.56
2018-04-22T09:19:22.628Z,22.55
2018-04-22T09:21:50.789Z,22.56
2018-04-22T09:24:18.954Z,22.70
2018-04-22T09:26:47.096Z,22.71
2018-04-22T09:29:15.257Z,22.74
2018-04-22T09:31:43.388Z,22.79
2018-04-22T09:34:11.505Z,22.81
2018-04-22T09:36:39.677Z,22.91
2018-04-22T09:39:07.814Z,23.01
2018-04-22T09:41:35.961Z,23.05
2018-04-22T09:44:04.137Z,23.02
2018-04-22T09:46:32.254Z,23.10
2018-04-22T09:49:00.412Z,23.19
2018-04-22T09:51:27.955Z,23.28
2018-04-22T09:54:01.677Z,23.46
2018-04-22T09:56:29.993Z,23.47
2018-04-22T09:58:58.130Z,23.39
2018-04-22T10:01:31.778Z,23.43
2018-04-22T10:04:01.921Z,23.61
2018-04-22T10:06:31.962Z,23.68
2018-04-22T10:09:00.133Z,23.67
2018-04-22T10:11:28.280Z,23.71
2018-04-22T10:13:56.435Z,23.81
2018-04-22T10:16:24.606Z,23.81
2018-04-22T10:18:52.758Z,23.77
2018-04-22T10:21:20.886Z,23.76
2018-04-22T10:23:49.039Z,23.76
2018-04-22T10:26:17.171Z,23.72
2018-04-22T10:28:45.308Z,23.77
2018-04-22T10:31:13.467Z,23.81
2018-04-22T10:33:41.608Z,23.90
2018-04-22T10:36:09.756Z,23.92
2018-04-22T10:38:41.525Z,23.90
2018-04-22T10:41:09.661Z,24.04
2018-04-22T10:43:37.958Z,24.13
2018-04-22T10:46:06.086Z,24.20
2018-04-22T10:48:34.208Z,24.28
2018-04-22T10:51:02.493Z,24.33
2018-04-22T10:53:30.656Z,24.37
2018-04-22T10:55:58.800Z,24.42
2018-04-22T10:58:26.928Z,24.48
2018-04-22T11:00:55.084Z,24.45
2018-04-22T11:03:23.245Z,24.35
2018-04-22T11:05:51.419Z,24.47
2018-04-22T11:08:19.533Z,24.63
2018-04-22T11:10:47.670Z,24.63
2018-04-22T11:13:15.823Z,24.63
2018-04-22T11:15:43.961Z,24.56
2018-04-22T11:18:12.099Z,24.53
2018-04-22T11:20:40.247Z,24.58
2018-04-22T11:23:08.381Z,24.75
2018-04-22T11:25:36.501Z,24.94
2018-04-22T11:28:04.657Z,24.97
2018-04-22T11:30:32.818Z,25.13
2018-04-22T11:33:00.927Z,25.10
2018-04-22T11:35:29.228Z,25.07
2018-04-22T11:37:57.372Z,24.99
2018-04-22T11:40:25.523Z,24.84
2018-04-22T11:42:53.676Z,24.77
2018-04-22T11:45:21.853Z,24.98
2018-04-22T11:47:50.069Z,25.20
2018-04-22T11:50:18.163Z,25.08
2018-04-22T11:52:46.314Z,25.24
2018-04-22T11:55:14.444Z,25.39
2018-04-22T11:57:42.583Z,25.72
2018-04-22T12:00:10.755Z,25.90
2018-04-22T12:02:38.881Z,25.66
2018-04-22T12:05:07.032Z,25.49
2018-04-22T12:07:35.141Z,25.94
2018-04-22T12:10:03.292Z,26.05
2018-04-22T12:12:31.436Z,26.41
2018-04-22T12:14:59.577Z,26.46
2018-04-22T12:17:31.196Z,26.24
2018-04-22T12:19:59.364Z,25.89
2018-04-22T12:22:27.498Z,25.74
2018-04-22T12:24:55.636Z,25.44
2018-04-22T12:27:23.809Z,25.22
2018-04-22T12:29:51.934Z,25.20
2018-04-22T12:32:20.069Z,25.14
2018-04-22T12:34:48.225Z,25.08
2018-04-22T12:37:16.351Z,25.03
2018-04-22T12:39:44.502Z,25.01
2018-04-22T12:42:12.639Z,25.00
2018-04-22T12:44:40.784Z,25.04
2018-04-22T12:47:08.923Z,24.97
2018-04-22T12:49:37.103Z,25.01
2018-04-22T12:52:05.226Z,24.87
2018-04-22T12:54:33.343Z,24.75
2018-04-22T12:57:01.490Z,24.71
2018-04-22T12:59:29.629Z,24.61
2018-04-22T13:01:57.768Z,24.54
2018-04-22T13:04:25.892Z,24.49
2018-04-22T13:06:54.047Z,24.49
2018-04-22T13:09:22.175Z,24.56
2018-04-22T13:11:50.326Z,24.69
2018-04-22T13:14:18.529Z,25.00
2018-04-22T13:16:46.664Z,25.49
2018-04-22T13:19:14.810Z,25.77
2018-04-22T13:21:42.924Z,25.64
2018-04-22T13:24:11.072Z,25.61
2018-04-22T13:26:39.238Z,25.36
2018-04-22T13:29:07.372Z,25.26
2018-04-22T13:31:35.543Z,25.38
2018-04-22T13:34:03.691Z,25.23
2018-04-22T13:36:31.813Z,25.19
2018-04-22T13:38:59.981Z,25.31
2018-04-22T13:41:28.087Z,25.43
2018-04-22T13:43:56.192Z,25.78
2018-04-22T13:46:24.308Z,25.97
2018-04-22T13:48:52.460Z,26.10
2018-04-22T13:51:20.594Z,26.25
2018-04-22T13:53:48.816Z,26.23
2018-04-22T13:56:16.941Z,26.22
2018-04-22T13:58:45.132Z,26.32
2018-04-22T14:01:13.254Z,26.25
2018-04-22T14:03:41.420Z,26.32
2018-04-22T14:06:09.551Z,26.37
2018-04-22T14:08:37.672Z,26.28
2018-04-22T14:11:05.870Z,26.31
2018-04-22T14:13:33.995Z,26.39
2018-04-22T14:16:02.164Z,26.48
2018-04-22T14:18:33.515Z,26.37
2018-04-22T14:21:01.670Z,26.53
2018-04-22T14:23:29.829Z,26.43
2018-04-22T14:25:57.973Z,26.39
2018-04-22T14:28:26.107Z,26.21
2018-04-22T14:30:54.289Z,26.17
2018-04-22T14:33:22.899Z,26.19
2018-04-22T14:35:51.033Z,26.26
2018-04-22T14:38:19.264Z,26.29
2018-04-22T14:40:47.440Z,26.22
2018-04-22T14:43:15.556Z,26.15
2018-04-22T14:45:55.511Z,26.08
2018-04-22T14:48:23.668Z,25.92
2018-04-22T14:50:51.810Z,25.78
2018-04-22T14:53:19.951Z,25.89
2018-04-22T14:55:48.099Z,25.89
2018-04-22T14:58:16.247Z,25.83
2018-04-22T15:00:44.386Z,25.65
2018-04-22T15:03:12.517Z,25.59
2018-04-22T15:05:43.788Z,25.55
2018-04-22T15:08:11.933Z,25.47
2018-04-22T15:10:40.080Z,25.37
2018-04-22T15:13:08.221Z,25.33
2018-04-22T15:15:36.373Z,25.32
2018-04-22T15:18:04.513Z,25.29
2018-04-22T15:20:32.631Z,25.26
2018-04-22T15:23:00.783Z,25.21
2018-04-22T15:25:28.925Z,25.18
2018-04-22T15:27:57.070Z,25.20
2018-04-22T15:30:25.213Z,25.21
2018-04-22T15:32:53.417Z,25.14
2018-04-22T15:35:21.533Z,25.09
2018-04-22T15:37:49.710Z,25.05
2018-04-22T15:40:17.839Z,25.00
2018-04-22T15:42:46.027Z,24.98
2018-04-22T15:45:14.114Z,24.97
2018-04-22T15:47:42.248Z,24.89
2018-04-22T15:50:10.397Z,24.86
2018-04-22T15:52:38.553Z,24.81
2018-04-22T15:55:06.673Z,24.75
2018-04-22T15:57:34.793Z,24.70
2018-04-22T16:00:02.937Z,24.67
2018-04-22T16:02:31.131Z,24.68
2018-04-22T16:04:59.269Z,24.73
2018-04-22T16:07:27.421Z,24.86
2018-04-22T16:09:55.550Z,24.98
2018-04-22T16:12:24.608Z,25.04
2018-04-22T16:14:52.776Z,25.04
2018-04-22T16:17:20.888Z,24.98
2018-04-22T16:19:49.016Z,24.97
2018-04-22T16:22:17.159Z,24.96
2018-04-22T16:24:45.286Z,24.83
2018-04-22T16:27:13.419Z,24.86
2018-04-22T16:29:41.570Z,24.87
2018-04-22T16:32:09.713Z,24.89
2018-04-22T16:34:37.850Z,24.77
2018-04-22T16:37:05.998Z,24.65
2018-04-22T16:39:34.145Z,24.57
2018-04-22T16:42:02.332Z,24.54
2018-04-22T16:44:30.491Z,24.60
2018-04-22T16:46:58.625Z,24.66
2018-04-22T16:49:26.747Z,24.68
2018-04-22T16:51:54.888Z,24.68
2018-04-22T16:54:23.043Z,24.67
2018-04-22T16:56:51.166Z,24.67
2018-04-22T16:59:19.292Z,24.65
2018-04-22T17:01:47.440Z,24.61
2018-04-22T17:04:15.570Z,24.58
2018-04-22T17:06:43.704Z,24.56
2018-04-22T17:09:11.874Z,24.49
2018-04-22T17:11:39.960Z,24.41
2018-04-22T17:14:08.254Z,24.34
2018-04-22T17:16:36.391Z,24.31
2018-04-22T17:19:04.522Z,24.30
2018-04-22T17:21:36.228Z,24.27
2018-04-22T17:24:04.338Z,24.22
2018-04-22T17:26:32.478Z,24.18
2018-04-22T17:29:00.642Z,24.15
2018-04-22T17:31:28.762Z,24.13
2018-04-22T17:33:56.891Z,24.08
2018-04-22T17:36:25.057Z,24.06
2018-04-22T17:38:53.172Z,24.01
2018-04-22T17:41:21.291Z,23.96
2018-04-22T17:43:49.439Z,23.91
2018-04-22T17:46:17.552Z,23.88
2018-04-22T17:48:45.686Z,23.87
2018-04-22T17:51:13.836Z,23.84
2018-04-22T17:53:41.989Z,23.86
2018-04-22T17:56:10.098Z,23.86
2018-04-22T17:58:38.233Z,23.86
2018-04-22T18:01:06.371Z,23.85
2018-04-22T18:03:38.025Z,23.90
2018-04-22T18:06:06.348Z,24.07
2018-04-22T18:08:34.555Z,24.34
2018-04-22T18:11:02.687Z,24.40
2018-04-22T18:13:31.024Z,24.39
2018-04-22T18:16:02.587Z,24.36
2018-04-22T18:18:30.717Z,24.49
2018-04-22T18:20:59.028Z,24.40
2018-04-22T18:23:27.241Z,24.23
2018-04-22T18:25:55.393Z,23.93
2018-04-22T18:28:23.513Z,23.75
2018-04-22T18:30:51.628Z,23.61
2018-04-22T18:33:19.752Z,23.52
2018-04-22T18:35:47.893Z,23.49
2018-04-22T18:38:16.047Z,23.41
2018-04-22T18:40:44.166Z,23.35
2018-04-22T18:43:12.332Z,23.28
2018-04-22T18:45:40.551Z,23.23
2018-04-22T18:48:08.671Z,23.18
2018-04-22T18:50:37.009Z,23.14
2018-04-22T18:53:05.150Z,23.08
2018-04-22T18:55:33.270Z,23.08
2018-04-22T18:58:01.439Z,23.04
2018-04-22T19:00:29.563Z,22.95
2018-04-22T19:02:58.161Z,22.94
2018-04-22T19:05:26.294Z,22.85
2018-04-22T19:07:54.515Z,22.83
2018-04-22T19:10:22.722Z,22.79
2018-04-22T19:12:50.872Z,22.80
2018-04-22T19:15:19.011Z,22.81
2018-04-22T19:17:47.124Z,22.73
2018-04-22T19:20:15.289Z,22.56
2018-04-22T19:22:43.437Z,22.44
2018-04-22T19:25:11.585Z,22.42
2018-04-22T19:27:39.723Z,22.34
2018-04-22T19:30:07.857Z,22.30
2018-04-22T19:32:35.999Z,22.24
2018-04-22T19:35:04.151Z,22.21
2018-04-22T19:37:35.276Z,22.15
2018-04-22T19:40:03.412Z,22.11
2018-04-22T19:42:31.631Z,22.20
2018-04-22T19:44:59.736Z,22.23
2018-04-22T19:47:27.876Z,22.19
2018-04-22T19:49:56.014Z,22.13
2018-04-22T19:52:24.150Z,22.08
2018-04-22T19:54:52.297Z,22.02
2018-04-22T19:57:20.418Z,21.98
2018-04-22T19:59:48.550Z,21.87
2018-04-22T20:02:16.683Z,21.87
2018-04-22T20:04:44.834Z,21.79
2018-04-22T20:07:12.957Z,21.74
2018-04-22T20:09:41.107Z,21.67
2018-04-22T20:12:09.268Z,21.68
2018-04-22T20:14:37.391Z,21.64
2018-04-22T20:17:05.523Z,21.57
2018-04-22T20:19:33.686Z,21.53
2018-04-22T20:22:01.815Z,21.54
2018-04-22T20:24:33.728Z,21.51
2018-04-22T20:27:01.892Z,21.43
2018-04-22T20:29:30.016Z,21.38
2018-04-22T20:31:58.173Z,21.33
2018-04-22T20:34:26.311Z,21.24
2018-04-22T20:36:57.565Z,21.23
2018-04-22T20:39:25.709Z,21.19
2018-04-22T20:41:57.431Z,21.18
2018-04-22T20:44:25.568Z,21.03
2018-04-22T20:46:53.733Z,21.04
2018-04-22T20:49:21.905Z,21.01
2018-04-22T20:51:50.045Z,21.00
2018-04-22T20:54:18.185Z,20.87
2018-04-22T20:56:46.334Z,20.80
2018-04-22T20:59:14.456Z,20.76
2018-04-22T21:01:42.582Z,20.74
2018-04-22T21:04:10.745Z,20.63
2018-04-22T21:06:38.866Z,20.53
2018-04-22T21:09:07.011Z,20.43
2018-04-22T21:11:35.180Z,20.39
2018-04-22T21:14:03.321Z,20.34
2018-04-22T21:16:31.459Z,20.18
2018-04-22T21:18:59.598Z,20.13
2018-04-22T21:21:27.730Z,20.21
2018-04-22T21:23:55.904Z,20.22
2018-04-22T21:26:24.045Z,20.10
2018-04-22T21:28:52.273Z,20.10
2018-04-22T21:31:20.482Z,20.12
2018-04-22T21:33:48.708Z,20.02
2018-04-22T21:36:16.814Z,20.03
2018-04-22T21:38:45.003Z,20.02
2018-04-22T21:41:13.205Z,19.86
2018-04-22T21:43:41.335Z,19.82
2018-04-22T21:46:09.488Z,19.74
2018-04-22T21:48:37.649Z,19.76
2018-04-22T21:51:05.796Z,19.63
2018-04-22T21:53:33.951Z,19.51
2018-04-22T21:56:02.127Z,19.57
2018-04-22T21:58:30.249Z,19.61
2018-04-22T22:00:58.369Z,19.59
2018-04-22T22:03:26.779Z,19.44
2018-04-22T22:05:54.930Z,19.54
2018-04-22T22:08:23.072Z,19.48
2018-04-22T22:10:51.211Z,19.43
2018-04-22T22:13:19.372Z,19.36
2018-04-22T22:15:47.497Z,19.41
2018-04-22T22:18:15.652Z,19.28
2018-04-22T22:20:43.766Z,19.27
2018-04-22T22:23:11.908Z,19.20
2018-04-22T22:25:40.220Z,19.22
2018-04-22T22:28:08.349Z,19.25
2018-04-22T22:30:36.468Z,19.16
2018-04-22T22:33:04.626Z,19.19
2018-04-22T22:35:32.745Z,19.22
2018-04-22T22:38:00.882Z,19.15
2018-04-22T22:40:29.285Z,19.11
2018-04-22T22:42:57.895Z,19.13
2018-04-22T22:45:26.029Z,19.04
2018-04-22T22:47:54.831Z,19.05
2018-04-22T22:50:22.967Z,18.94
2018-04-22T22:52:51.125Z,18.91
2018-04-22T22:55:19.294Z,18.90
2018-04-22T22:57:47.449Z,18.86
2018-04-22T23:00:15.603Z,18.85
2018-04-22T23:02:43.778Z,18.85
2018-04-22T23:05:11.875Z,18.88
2018-04-22T23:07:40.030Z,18.34
2018-04-22T23:10:08.173Z,18.44
2018-04-22T23:12:36.315Z,18.64
2018-04-22T23:15:04.465Z,18.71
2018-04-22T23:17:32.596Z,18.76
2018-04-22T23:20:00.747Z,18.74
2018-04-22T23:22:28.880Z,18.74
2018-04-22T23:24:57.042Z,18.76
2018-04-22T23:27:25.180Z,18.82
2018-04-22T23:29:53.327Z,18.73
2018-04-22T23:32:21.492Z,18.78
2018-04-22T23:34:49.643Z,18.75
2018-04-22T23:37:17.786Z,18.81
2018-04-22T23:39:46.168Z,18.81
2018-04-22T23:42:14.292Z,18.84
2018-04-22T23:44:42.427Z,18.92
2018-04-22T23:47:12.501Z,19.00
2018-04-22T23:49:40.627Z,18.89
2018-04-22T23:52:08.744Z,18.70
2018-04-22T23:54:36.885Z,18.48
2018-04-22T23:57:05.020Z,18.60
2018-04-22T23:59:33.162Z,18.76
